createdAt,value
2018-07-16T00:00:30.434Z,1010.72
2018-07-16T00:01:30.445Z,1010.68
2018-07-16T00:02:30.470Z,1010.73
2018-07-16T00:03:30.501Z,1010.68
2018-07-16T00:04:30.514Z,1010.70
2018-07-16T00:05:30.539Z,1010.70
2018-07-16T00:06:30.565Z,1010.70
2018-07-16T00:07:30.594Z,1010.71
2018-07-16T00:08:30.607Z,1010.70
2018-07-16T00:09:30.631Z,1010.71
2018-07-16T00:10:30.645Z,1010.67
2018-07-16T00:11:30.667Z,1010.71
2018-07-16T00:12:30.693Z,1010.67
2018-07-16T00:13:30.711Z,1010.65
2018-07-16T00:14:30.756Z,1010.68
2018-07-16T00:15:30.759Z,1010.71
2018-07-16T00:16:30.773Z,1010.65
2018-07-16T00:17:30.800Z,1010.67
2018-07-16T00:18:30.827Z,1010.68
2018-07-16T00:19:30.844Z,1010.69
2018-07-16T00:20:30.881Z,1010.70
2018-07-16T00:21:30.888Z,1010.65
2018-07-16T00:22:30.915Z,1010.66
2018-07-16T00:23:30.932Z,1010.65
2018-07-16T00:24:30.959Z,1010.64
2018-07-16T00:25:30.991Z,1010.66
2018-07-16T00:26:31.000Z,1010.63
2018-07-16T00:27:31.036Z,1010.66
2018-07-16T00:28:31.047Z,1010.61
2018-07-16T00:29:31.065Z,1010.64
2018-07-16T00:30:31.091Z,1010.65
2018-07-16T00:31:31.113Z,1010.61
2018-07-16T00:32:31.126Z,1010.62
2018-07-16T00:33:31.153Z,1010.61
2018-07-16T00:34:31.176Z,1010.61
2018-07-16T00:35:31.195Z,1010.60
2018-07-16T00:36:31.220Z,1010.54
2018-07-16T00:37:31.244Z,1010.50
2018-07-16T00:38:31.257Z,1010.49
2018-07-16T00:39:31.287Z,1010.52
2018-07-16T00:40:31.316Z,1010.50
2018-07-16T00:41:31.628Z,1010.47
2018-07-16T00:42:31.354Z,1010.54
2018-07-16T00:43:31.373Z,1010.54
2018-07-16T00:44:31.387Z,1010.50
2018-07-16T00:45:31.412Z,1010.56
2018-07-16T00:46:31.438Z,1010.55
2018-07-16T00:47:31.459Z,1010.49
2018-07-16T00:48:31.481Z,1010.51
2018-07-16T00:49:31.510Z,1010.52
2018-07-16T00:50:31.523Z,1010.55
2018-07-16T00:51:31.545Z,1010.53
2018-07-16T00:52:31.572Z,1010.51
2018-07-16T00:53:31.587Z,1010.53
2018-07-16T00:54:31.613Z,1010.56
2018-07-16T00:55:31.622Z,1010.56
2018-07-16T00:56:31.696Z,1010.52
2018-07-16T00:57:31.686Z,1010.53
2018-07-16T00:58:31.714Z,1010.52
2018-07-16T00:59:31.721Z,1010.50
2018-07-16T01:00:31.745Z,1010.51
2018-07-16T01:01:31.755Z,1010.54
2018-07-16T01:02:31.780Z,1010.51
2018-07-16T01:03:31.814Z,1010.48
2018-07-16T01:04:31.826Z,1010.47
2018-07-16T01:05:31.851Z,1010.46
2018-07-16T01:06:31.874Z,1010.43
2018-07-16T01:07:31.884Z,1010.42
2018-07-16T01:08:31.912Z,1010.44
2018-07-16T01:09:31.941Z,1010.41
2018-07-16T01:10:31.956Z,1010.44
2018-07-16T01:11:31.979Z,1010.39
2018-07-16T01:12:32.003Z,1010.40
2018-07-16T01:13:32.013Z,1010.43
2018-07-16T01:14:32.042Z,1010.44
2018-07-16T01:15:32.060Z,1010.40
2018-07-16T01:16:32.086Z,1010.43
2018-07-16T01:17:32.106Z,1010.40
2018-07-16T01:18:32.120Z,1010.37
2018-07-16T01:19:32.150Z,1010.37
2018-07-16T01:20:32.174Z,1010.35
2018-07-16T01:21:32.191Z,1010.39
2018-07-16T01:22:32.216Z,1010.35
2018-07-16T01:23:32.239Z,1010.33
2018-07-16T01:24:32.251Z,1010.37
2018-07-16T01:25:32.280Z,1010.42
2018-07-16T01:26:32.305Z,1010.38
2018-07-16T01:27:32.315Z,1010.40
2018-07-16T01:28:32.341Z,1010.36
2018-07-16T01:29:32.357Z,1010.34
2018-07-16T01:30:32.382Z,1010.39
2018-07-16T01:31:32.427Z,1010.40
2018-07-16T01:32:32.427Z,1010.40
2018-07-16T01:33:32.448Z,1010.37
2018-07-16T01:34:32.475Z,1010.41
2018-07-16T01:35:32.491Z,1010.40
2018-07-16T01:36:32.517Z,1010.40
2018-07-16T01:37:32.541Z,1010.40
2018-07-16T01:38:32.556Z,1010.37
2018-07-16T01:39:32.577Z,1010.41
2018-07-16T01:40:32.590Z,1010.43
2018-07-16T01:41:32.622Z,1010.46
2018-07-16T01:42:32.648Z,1010.44
2018-07-16T01:43:32.660Z,1010.43
2018-07-16T01:44:32.686Z,1010.44
2018-07-16T01:45:32.707Z,1010.41
2018-07-16T01:46:32.720Z,1010.43
2018-07-16T01:47:32.750Z,1010.38
2018-07-16T01:48:32.778Z,1010.41
2018-07-16T01:49:32.789Z,1010.43
2018-07-16T01:50:32.817Z,1010.42
2018-07-16T01:51:32.844Z,1010.44
2018-07-16T01:52:32.872Z,1010.44
2018-07-16T01:53:32.881Z,1010.41
2018-07-16T01:54:32.896Z,1010.45
2018-07-16T01:55:32.917Z,1010.44
2018-07-16T01:56:32.944Z,1010.44
2018-07-16T01:57:32.963Z,1010.42
2018-07-16T01:58:32.988Z,1010.40
2018-07-16T01:59:32.998Z,1010.44
2018-07-16T02:00:33.024Z,1010.40
2018-07-16T02:01:33.048Z,1010.40
2018-07-16T02:02:33.061Z,1010.44
2018-07-16T02:03:33.091Z,1010.43
2018-07-16T02:04:33.118Z,1010.39
2018-07-16T02:05:33.127Z,1010.43
2018-07-16T02:06:33.154Z,1010.41
2018-07-16T02:07:33.170Z,1010.37
2018-07-16T02:08:33.196Z,1010.42
2018-07-16T02:09:33.224Z,1010.41
2018-07-16T02:10:33.237Z,1010.42
2018-07-16T02:11:33.259Z,1010.43
2018-07-16T02:12:33.293Z,1010.41
2018-07-16T02:13:33.300Z,1010.39
2018-07-16T02:14:33.326Z,1010.38
2018-07-16T02:15:33.348Z,1010.39
2018-07-16T02:16:33.363Z,1010.40
2018-07-16T02:17:33.391Z,1010.39
2018-07-16T02:18:33.403Z,1010.40
2018-07-16T02:19:33.434Z,1010.40
2018-07-16T02:20:33.449Z,1010.46
2018-07-16T02:21:33.470Z,1010.46
2018-07-16T02:22:33.502Z,1010.43
2018-07-16T02:23:33.512Z,1010.41
2018-07-16T02:24:33.539Z,1010.39
2018-07-16T02:25:33.563Z,1010.38
2018-07-16T02:26:33.576Z,1010.39
2018-07-16T02:27:33.599Z,1010.39
2018-07-16T02:28:33.611Z,1010.41
2018-07-16T02:29:33.643Z,1010.41
2018-07-16T02:30:33.670Z,1010.40
2018-07-16T02:31:33.679Z,1010.38
2018-07-16T02:32:33.707Z,1010.34
2018-07-16T02:33:33.729Z,1010.38
2018-07-16T02:34:33.743Z,1010.35
2018-07-16T02:35:33.777Z,1010.33
2018-07-16T02:36:33.788Z,1010.30
2018-07-16T02:37:33.809Z,1010.34
2018-07-16T02:38:33.834Z,1010.30
2018-07-16T02:39:33.852Z,1010.28
2018-07-16T02:40:33.877Z,1010.30
2018-07-16T02:41:33.896Z,1010.30
2018-07-16T02:42:33.920Z,1010.33
2018-07-16T02:43:33.930Z,1010.30
2018-07-16T02:44:33.956Z,1010.29
2018-07-16T02:45:33.986Z,1010.26
2018-07-16T02:46:33.997Z,1010.34
2018-07-16T02:47:34.018Z,1010.33
2018-07-16T02:48:34.047Z,1010.30
2018-07-16T02:49:34.061Z,1010.29
2018-07-16T02:50:34.085Z,1010.33
2018-07-16T02:51:34.105Z,1010.30
2018-07-16T02:52:34.129Z,1010.32
2018-07-16T02:53:34.155Z,1010.35
2018-07-16T02:54:34.168Z,1010.35
2018-07-16T02:55:34.190Z,1010.39
2018-07-16T02:56:34.319Z,1010.34
2018-07-16T02:57:34.228Z,1010.37
2018-07-16T02:58:34.256Z,1010.35
2018-07-16T02:59:34.271Z,1010.36
2018-07-16T03:00:34.298Z,1010.36
2018-07-16T03:01:34.310Z,1010.42
2018-07-16T03:02:34.340Z,1010.39
2018-07-16T03:03:34.365Z,1010.42
2018-07-16T03:04:34.378Z,1010.39
2018-07-16T03:05:34.402Z,1010.42
2018-07-16T03:06:34.416Z,1010.42
2018-07-16T03:07:34.437Z,1010.42
2018-07-16T03:08:34.463Z,1010.41
2018-07-16T03:09:34.480Z,1010.43
2018-07-16T03:10:34.506Z,1010.43
2018-07-16T03:11:34.517Z,1010.44
2018-07-16T03:12:34.543Z,1010.43
2018-07-16T03:13:34.570Z,1010.44
2018-07-16T03:14:34.583Z,1010.45
2018-07-16T03:15:34.613Z,1010.43
2018-07-16T03:16:34.631Z,1010.40
2018-07-16T03:17:34.654Z,1010.37
2018-07-16T03:18:34.674Z,1010.38
2018-07-16T03:19:34.703Z,1010.37
2018-07-16T03:20:34.719Z,1010.34
2018-07-16T03:21:34.733Z,1010.33
2018-07-16T03:22:34.760Z,1010.35
2018-07-16T03:23:34.780Z,1010.38
2018-07-16T03:24:34.793Z,1010.34
2018-07-16T03:25:34.823Z,1010.37
2018-07-16T03:26:34.840Z,1010.38
2018-07-16T03:27:34.860Z,1010.36
2018-07-16T03:28:34.889Z,1010.42
2018-07-16T03:29:34.895Z,1010.40
2018-07-16T03:30:34.922Z,1010.42
2018-07-16T03:31:34.942Z,1010.45
2018-07-16T03:32:34.967Z,1010.42
2018-07-16T03:33:34.989Z,1010.42
2018-07-16T03:34:35.004Z,1010.43
2018-07-16T03:35:35.034Z,1010.39
2018-07-16T03:36:35.048Z,1010.40
2018-07-16T03:37:35.075Z,1010.44
2018-07-16T03:38:35.097Z,1010.43
2018-07-16T03:39:35.105Z,1010.46
2018-07-16T03:40:35.132Z,1010.43
2018-07-16T03:41:35.149Z,1010.44
2018-07-16T03:42:35.178Z,1010.42
2018-07-16T03:43:35.185Z,1010.43
2018-07-16T03:44:35.211Z,1010.42
2018-07-16T03:45:35.256Z,1010.41
2018-07-16T03:46:35.253Z,1010.46
2018-07-16T03:47:35.284Z,1010.42
2018-07-16T03:48:35.296Z,1010.39
2018-07-16T03:49:35.316Z,1010.41
2018-07-16T03:50:35.341Z,1010.39
2018-07-16T03:51:35.358Z,1010.40
2018-07-16T03:52:35.385Z,1010.43
2018-07-16T03:53:35.401Z,1010.42
2018-07-16T03:54:35.426Z,1010.43
2018-07-16T03:55:35.449Z,1010.41
2018-07-16T03:56:35.463Z,1010.37
2018-07-16T03:57:35.494Z,1010.37
2018-07-16T03:58:35.504Z,1010.39
2018-07-16T03:59:35.524Z,1010.39
2018-07-16T04:00:35.551Z,1010.40
2018-07-16T04:01:35.638Z,1010.38
2018-07-16T04:02:35.593Z,1010.37
2018-07-16T04:03:35.610Z,1010.35
2018-07-16T04:04:35.636Z,1010.38
2018-07-16T04:05:35.656Z,1010.36
2018-07-16T04:06:35.670Z,1010.37
2018-07-16T04:07:35.700Z,1010.37
2018-07-16T04:08:35.714Z,1010.38
2018-07-16T04:09:35.741Z,1010.36
2018-07-16T04:10:35.766Z,1010.36
2018-07-16T04:11:35.784Z,1010.37
2018-07-16T04:12:35.807Z,1010.35
2018-07-16T04:13:35.833Z,1010.35
2018-07-16T04:14:35.846Z,1010.30
2018-07-16T04:15:35.867Z,1010.30
2018-07-16T04:16:35.881Z,1010.33
2018-07-16T04:17:35.905Z,1010.33
2018-07-16T04:18:35.932Z,1010.31
2018-07-16T04:19:35.949Z,1010.33
2018-07-16T04:20:35.987Z,1010.38
2018-07-16T04:21:35.986Z,1010.35
2018-07-16T04:22:36.013Z,1010.35
2018-07-16T04:23:36.046Z,1010.39
2018-07-16T04:24:36.055Z,1010.36
2018-07-16T04:25:36.093Z,1010.39
2018-07-16T04:26:36.106Z,1010.36
2018-07-16T04:27:36.115Z,1010.41
2018-07-16T04:28:36.141Z,1010.39
2018-07-16T04:29:36.158Z,1010.38
2018-07-16T04:30:36.184Z,1010.37
2018-07-16T04:31:36.205Z,1010.39
2018-07-16T04:32:36.221Z,1010.44
2018-07-16T04:33:36.248Z,1010.43
2018-07-16T04:34:36.274Z,1010.41
2018-07-16T04:35:36.291Z,1010.43
2018-07-16T04:36:36.317Z,1010.43
2018-07-16T04:37:36.325Z,1010.44
2018-07-16T04:38:36.350Z,1010.34
2018-07-16T04:39:36.381Z,1010.38
2018-07-16T04:40:36.394Z,1010.39
2018-07-16T04:41:36.435Z,1010.37
2018-07-16T04:42:36.447Z,1010.31
2018-07-16T04:43:36.457Z,1010.32
2018-07-16T04:44:36.484Z,1010.33
2018-07-16T04:45:36.510Z,1010.34
2018-07-16T04:46:36.526Z,1010.35
2018-07-16T04:47:36.561Z,1010.34
2018-07-16T04:48:36.563Z,1010.34
2018-07-16T04:49:36.586Z,1010.37
2018-07-16T04:50:36.612Z,1010.35
2018-07-16T04:51:36.650Z,1010.32
2018-07-16T04:52:36.655Z,1010.32
2018-07-16T04:53:36.678Z,1010.32
2018-07-16T04:54:36.693Z,1010.33
2018-07-16T04:55:36.723Z,1010.35
2018-07-16T04:56:36.736Z,1010.33
2018-07-16T04:57:36.760Z,1010.32
2018-07-16T04:58:36.785Z,1010.38
2018-07-16T04:59:36.796Z,1010.35
2018-07-16T05:00:36.822Z,1010.34
2018-07-16T05:01:36.853Z,1010.34
2018-07-16T05:02:36.866Z,1010.31
2018-07-16T05:03:36.888Z,1010.30
2018-07-16T05:04:36.915Z,1010.30
2018-07-16T05:05:36.927Z,1010.28
2018-07-16T05:06:36.953Z,1010.27
2018-07-16T05:07:36.983Z,1010.24
2018-07-16T05:08:37.009Z,1010.25
2018-07-16T05:09:37.019Z,1010.26
2018-07-16T05:10:37.046Z,1010.26
2018-07-16T05:11:37.064Z,1010.29
2018-07-16T05:12:37.090Z,1010.24
2018-07-16T05:13:37.114Z,1010.25
2018-07-16T05:14:37.130Z,1010.24
2018-07-16T05:15:37.148Z,1010.28
2018-07-16T05:16:37.174Z,1010.24
2018-07-16T05:17:37.204Z,1010.21
2018-07-16T05:18:37.222Z,1010.20
2018-07-16T05:19:37.240Z,1010.15
2018-07-16T05:20:37.257Z,1010.17
2018-07-16T05:21:37.281Z,1010.17
2018-07-16T05:22:37.307Z,1010.17
2018-07-16T05:23:37.328Z,1010.19
2018-07-16T05:24:37.351Z,1010.20
2018-07-16T05:25:37.372Z,1010.23
2018-07-16T05:26:37.385Z,1010.24
2018-07-16T05:27:37.414Z,1010.24
2018-07-16T05:28:37.441Z,1010.21
2018-07-16T05:29:37.468Z,1010.24
2018-07-16T05:30:37.482Z,1010.24
2018-07-16T05:31:37.544Z,1010.20
2018-07-16T05:32:37.767Z,1010.23
2018-07-16T05:33:37.551Z,1010.20
2018-07-16T05:34:37.573Z,1010.18
2018-07-16T05:35:37.595Z,1010.14
2018-07-16T05:36:37.621Z,1010.13
2018-07-16T05:37:37.635Z,1010.16
2018-07-16T05:38:37.660Z,1010.15
2018-07-16T05:39:37.688Z,1010.15
2018-07-16T05:40:37.718Z,1010.14
2018-07-16T05:41:37.739Z,1010.20
2018-07-16T05:42:37.751Z,1010.18
2018-07-16T05:43:37.781Z,1010.17
2018-07-16T05:44:37.812Z,1010.17
2018-07-16T05:45:37.831Z,1010.13
2018-07-16T05:46:37.857Z,1010.12
2018-07-16T05:47:37.868Z,1010.12
2018-07-16T05:48:37.895Z,1010.15
2018-07-16T05:49:37.923Z,1010.14
2018-07-16T05:50:37.950Z,1010.12
2018-07-16T05:51:37.974Z,1010.11
2018-07-16T05:52:37.990Z,1010.09
2018-07-16T05:53:38.013Z,1010.13
2018-07-16T05:54:38.042Z,1010.16
2018-07-16T05:55:38.068Z,1010.12
2018-07-16T05:56:38.095Z,1010.11
2018-07-16T05:57:38.114Z,1010.11
2018-07-16T05:58:38.129Z,1010.11
2018-07-16T05:59:38.158Z,1010.08
2018-07-16T06:00:38.191Z,1010.08
2018-07-16T06:01:38.212Z,1010.09
2018-07-16T06:02:38.242Z,1010.05
2018-07-16T06:03:38.248Z,1010.05
2018-07-16T06:04:38.273Z,1010.04
2018-07-16T06:05:38.302Z,1010.03
2018-07-16T06:06:38.326Z,1010.01
2018-07-16T06:07:38.362Z,1010.03
2018-07-16T06:08:38.398Z,1010.03
2018-07-16T06:09:38.392Z,1010.00
2018-07-16T06:10:38.417Z,1010.05
2018-07-16T06:11:38.448Z,1010.06
2018-07-16T06:12:38.473Z,1010.07
2018-07-16T06:13:38.495Z,1010.05
2018-07-16T06:14:38.572Z,1010.05
2018-07-16T06:15:38.536Z,1010.00
2018-07-16T06:16:38.602Z,1010.06
2018-07-16T06:17:38.590Z,1010.03
2018-07-16T06:18:38.616Z,1010.01
2018-07-16T06:19:38.650Z,1009.99
2018-07-16T06:20:38.652Z,1010.00
2018-07-16T06:21:38.686Z,1010.03
2018-07-16T06:22:38.708Z,1010.00
2018-07-16T06:23:38.730Z,1009.99
2018-07-16T06:24:38.755Z,1009.96
2018-07-16T06:25:38.780Z,1009.95
2018-07-16T06:26:38.808Z,1009.93
2018-07-16T06:27:38.832Z,1009.93
2018-07-16T06:28:38.848Z,1009.94
2018-07-16T06:29:38.885Z,1009.89
2018-07-16T06:30:38.898Z,1009.90
2018-07-16T06:31:38.929Z,1009.91
2018-07-16T06:32:38.954Z,1009.93
2018-07-16T06:33:38.978Z,1009.92
2018-07-16T06:34:39.004Z,1009.94
2018-07-16T06:35:39.043Z,1009.95
2018-07-16T06:36:39.052Z,1009.97
2018-07-16T06:37:39.083Z,1010.00
2018-07-16T06:38:39.109Z,1009.98
2018-07-16T06:39:39.163Z,1009.95
2018-07-16T06:40:39.247Z,1009.95
2018-07-16T06:41:39.185Z,1009.97
2018-07-16T06:42:39.211Z,1009.96
2018-07-16T06:43:39.240Z,1009.98
2018-07-16T06:44:39.282Z,1009.98
2018-07-16T06:45:39.286Z,1010.02
2018-07-16T06:46:39.312Z,1010.02
2018-07-16T06:47:39.348Z,1010.00
2018-07-16T06:48:39.368Z,1010.01
2018-07-16T06:49:39.397Z,1010.01
2018-07-16T06:50:39.438Z,1009.98
2018-07-16T06:51:39.457Z,1010.01
2018-07-16T06:52:39.470Z,1010.04
2018-07-16T06:53:39.501Z,1010.03
2018-07-16T06:54:39.538Z,1010.03
2018-07-16T06:55:39.561Z,1010.04
2018-07-16T06:56:39.588Z,1010.07
2018-07-16T06:57:39.622Z,1010.04
2018-07-16T06:58:39.661Z,1010.06
2018-07-16T06:59:39.678Z,1010.06
2018-07-16T07:00:39.705Z,1010.01
2018-07-16T07:01:39.742Z,1009.99
2018-07-16T07:02:39.768Z,1010.00
2018-07-16T07:03:39.797Z,1009.98
2018-07-16T07:04:39.837Z,1009.98
2018-07-16T07:05:39.860Z,1009.92
2018-07-16T07:06:39.887Z,1009.96
2018-07-16T07:07:39.920Z,1009.87
2018-07-16T07:08:39.947Z,1009.91
2018-07-16T07:09:39.984Z,1009.93
2018-07-16T07:10:40.011Z,1009.92
2018-07-16T07:11:40.054Z,1009.89
2018-07-16T07:12:40.079Z,1009.88
2018-07-16T07:13:40.119Z,1009.87
2018-07-16T07:14:40.150Z,1009.87
2018-07-16T07:15:40.180Z,1009.83
2018-07-16T07:16:40.206Z,1009.85
2018-07-16T07:17:40.247Z,1009.83
2018-07-16T07:18:40.272Z,1009.86
2018-07-16T07:19:40.309Z,1009.84
2018-07-16T07:20:40.335Z,1009.90
2018-07-16T07:21:40.373Z,1009.87
2018-07-16T07:22:40.412Z,1009.85
2018-07-16T07:23:40.446Z,1009.84
2018-07-16T07:24:40.480Z,1009.80
2018-07-16T07:25:40.524Z,1009.83
2018-07-16T07:26:40.541Z,1009.76
2018-07-16T07:27:40.583Z,1009.78
2018-07-16T07:28:40.609Z,1009.82
2018-07-16T07:29:40.646Z,1009.74
2018-07-16T07:30:40.684Z,1009.80
2018-07-16T07:31:40.706Z,1009.79
2018-07-16T07:32:40.745Z,1009.74
2018-07-16T07:33:40.803Z,1009.80
2018-07-16T07:34:40.815Z,1009.78
2018-07-16T07:35:40.902Z,1009.79
2018-07-16T07:36:40.888Z,1009.76
2018-07-16T07:37:40.917Z,1009.73
2018-07-16T07:38:40.950Z,1009.80
2018-07-16T07:39:40.992Z,1009.77
2018-07-16T07:40:41.034Z,1009.75
2018-07-16T07:41:41.054Z,1009.76
2018-07-16T07:42:41.094Z,1009.79
2018-07-16T07:43:41.134Z,1009.75
2018-07-16T07:44:41.172Z,1009.77
2018-07-16T07:45:41.201Z,1009.85
2018-07-16T07:46:41.241Z,1009.84
2018-07-16T07:47:41.325Z,1009.82
2018-07-16T07:48:41.315Z,1009.87
2018-07-16T07:49:41.340Z,1009.87
2018-07-16T07:50:41.379Z,1009.88
2018-07-16T07:51:41.412Z,1009.91
2018-07-16T07:52:41.451Z,1009.92
2018-07-16T07:53:41.492Z,1009.91
2018-07-16T07:54:41.754Z,1009.90
2018-07-16T07:55:41.615Z,1009.92
2018-07-16T07:56:41.599Z,1009.88
2018-07-16T07:57:41.633Z,1009.89
2018-07-16T07:58:41.673Z,1009.88
2018-07-16T07:59:41.714Z,1009.86
2018-07-16T08:00:41.741Z,1009.85
2018-07-16T08:01:41.778Z,1009.83
2018-07-16T08:02:41.815Z,1009.85
2018-07-16T08:03:41.850Z,1009.81
2018-07-16T08:04:41.889Z,1009.80
2018-07-16T08:05:41.934Z,1009.79
2018-07-16T08:06:41.971Z,1009.85
2018-07-16T08:07:42.006Z,1009.82
2018-07-16T08:08:42.099Z,1009.80
2018-07-16T08:09:42.068Z,1009.78
2018-07-16T08:10:42.107Z,1009.79
2018-07-16T08:11:42.151Z,1009.78
2018-07-16T08:12:42.189Z,1009.83
2018-07-16T08:13:42.285Z,1009.81
2018-07-16T08:14:42.263Z,1009.78
2018-07-16T08:15:42.306Z,1009.81
2018-07-16T08:16:42.344Z,1009.78
2018-07-16T08:17:42.379Z,1009.76
2018-07-16T08:18:42.419Z,1009.81
2018-07-16T08:19:42.465Z,1009.82
2018-07-16T08:20:42.492Z,1009.81
2018-07-16T08:21:42.535Z,1009.81
2018-07-16T08:22:42.577Z,1009.81
2018-07-16T08:23:42.626Z,1009.81
2018-07-16T08:24:42.647Z,1009.78
2018-07-16T08:25:42.684Z,1009.80
2018-07-16T08:26:42.722Z,1009.83
2018-07-16T08:27:42.770Z,1009.83
2018-07-16T08:28:42.803Z,1009.83
2018-07-16T08:29:42.840Z,1009.84
2018-07-16T08:30:42.880Z,1009.84
2018-07-16T08:31:42.917Z,1009.79
2018-07-16T08:32:42.959Z,1009.83
2018-07-16T08:33:43.043Z,1009.81
2018-07-16T08:34:43.036Z,1009.75
2018-07-16T08:35:43.069Z,1009.78
2018-07-16T08:36:43.112Z,1009.72
2018-07-16T08:37:43.149Z,1009.65
2018-07-16T08:38:43.200Z,1009.63
2018-07-16T08:39:43.222Z,1009.68
2018-07-16T08:40:43.272Z,1009.66
2018-07-16T08:41:43.313Z,1009.65
2018-07-16T08:42:43.351Z,1009.60
2018-07-16T08:43:43.395Z,1009.70
2018-07-16T08:44:43.445Z,1009.66
2018-07-16T08:45:43.470Z,1009.65
2018-07-16T08:46:43.508Z,1009.59
2018-07-16T08:47:43.548Z,1009.65
2018-07-16T08:48:43.587Z,1009.68
2018-07-16T08:49:43.624Z,1009.72
2018-07-16T08:50:43.662Z,1009.73
2018-07-16T08:51:43.696Z,1009.74
2018-07-16T08:52:43.823Z,1009.72
2018-07-16T08:53:43.791Z,1009.64
2018-07-16T08:54:43.830Z,1009.64
2018-07-16T08:55:43.864Z,1009.68
2018-07-16T08:56:43.903Z,1009.66
2018-07-16T08:57:43.940Z,1009.66
2018-07-16T08:58:43.980Z,1009.67
2018-07-16T08:59:44.033Z,1009.67
2018-07-16T09:00:44.061Z,1009.63
2018-07-16T09:01:44.094Z,1009.70
2018-07-16T09:02:44.134Z,1009.69
2018-07-16T09:03:44.174Z,1009.69
2018-07-16T09:04:44.232Z,1009.59
2018-07-16T09:05:44.266Z,1009.61
2018-07-16T09:06:44.304Z,1009.62
2018-07-16T09:07:44.339Z,1009.61
2018-07-16T09:08:44.376Z,1009.66
2018-07-16T09:09:44.417Z,1009.64
2018-07-16T09:10:44.470Z,1009.60
2018-07-16T09:11:44.490Z,1009.62
2018-07-16T09:12:44.527Z,1009.66
2018-07-16T09:13:44.570Z,1009.65
2018-07-16T09:14:44.608Z,1009.64
2018-07-16T09:15:44.651Z,1009.66
2018-07-16T09:16:44.692Z,1009.64
2018-07-16T09:17:44.727Z,1009.69
2018-07-16T09:18:44.766Z,1009.68
2018-07-16T09:19:44.812Z,1009.64
2018-07-16T09:20:44.851Z,1009.67
2018-07-16T09:21:44.887Z,1009.66
2018-07-16T09:22:44.925Z,1009.67
2018-07-16T09:23:44.968Z,1009.64
2018-07-16T09:24:45.008Z,1009.64
2018-07-16T09:25:45.044Z,1009.64
2018-07-16T09:26:45.083Z,1009.64
2018-07-16T09:27:45.125Z,1009.64
2018-07-16T09:28:45.163Z,1009.67
2018-07-16T09:29:45.199Z,1009.61
2018-07-16T09:30:45.237Z,1009.63
2018-07-16T09:31:45.271Z,1009.61
2018-07-16T09:32:45.364Z,1009.66
2018-07-16T09:33:45.352Z,1009.63
2018-07-16T09:34:45.403Z,1009.66
2018-07-16T09:35:45.438Z,1009.61
2018-07-16T09:36:45.476Z,1009.59
2018-07-16T09:37:45.519Z,1009.60
2018-07-16T09:38:45.555Z,1009.57
2018-07-16T09:39:45.599Z,1009.61
2018-07-16T09:40:45.637Z,1009.63
2018-07-16T09:41:45.670Z,1009.62
2018-07-16T09:42:45.707Z,1009.61
2018-07-16T09:43:45.750Z,1009.58
2018-07-16T09:44:45.788Z,1009.59
2018-07-16T09:45:45.831Z,1009.62
2018-07-16T09:46:45.883Z,1009.56
2018-07-16T09:47:45.917Z,1009.57
2018-07-16T09:48:45.956Z,1009.52
2018-07-16T09:49:46.008Z,1009.47
2018-07-16T09:50:46.033Z,1009.47
2018-07-16T09:51:46.067Z,1009.48
2018-07-16T09:52:46.118Z,1009.43
2018-07-16T09:53:46.155Z,1009.45
2018-07-16T09:54:46.193Z,1009.43
2018-07-16T09:55:46.238Z,1009.47
2018-07-16T09:56:46.276Z,1009.38
2018-07-16T09:57:46.323Z,1009.40
2018-07-16T09:58:46.362Z,1009.37
2018-07-16T09:59:46.406Z,1009.30
2018-07-16T10:00:46.443Z,1009.37
2018-07-16T10:01:46.479Z,1009.35
2018-07-16T10:02:46.531Z,1009.38
2018-07-16T10:03:46.565Z,1009.42
2018-07-16T10:04:46.604Z,1009.38
2018-07-16T10:05:46.646Z,1009.36
2018-07-16T10:06:46.685Z,1009.30
2018-07-16T10:07:46.731Z,1009.37
2018-07-16T10:08:46.770Z,1009.30
2018-07-16T10:09:46.859Z,1009.30
2018-07-16T10:10:46.851Z,1009.27
2018-07-16T10:11:46.906Z,1009.29
2018-07-16T10:12:46.946Z,1009.26
2018-07-16T10:13:46.975Z,1009.25
2018-07-16T10:14:47.026Z,1009.23
2018-07-16T10:15:47.068Z,1009.22
2018-07-16T10:16:47.106Z,1009.20
2018-07-16T10:17:47.147Z,1009.19
2018-07-16T10:18:47.213Z,1009.25
2018-07-16T10:19:47.233Z,1009.18
2018-07-16T10:20:47.271Z,1009.19
2018-07-16T10:21:47.324Z,1009.16
2018-07-16T10:22:47.365Z,1009.16
2018-07-16T10:23:47.401Z,1009.16
2018-07-16T10:24:47.465Z,1009.15
2018-07-16T10:25:47.540Z,1009.19
2018-07-16T10:26:47.540Z,1009.15
2018-07-16T10:27:47.582Z,1009.14
2018-07-16T10:28:47.621Z,1009.14
2018-07-16T10:29:47.667Z,1009.11
2018-07-16T10:30:48.053Z,1009.12
2018-07-16T10:31:47.759Z,1009.12
2018-07-16T10:32:47.798Z,1009.14
2018-07-16T10:33:48.070Z,1009.09
2018-07-16T10:34:47.890Z,1009.10
2018-07-16T10:35:47.925Z,1009.17
2018-07-16T10:36:47.975Z,1009.20
2018-07-16T10:37:48.017Z,1009.15
2018-07-16T10:38:48.056Z,1009.16
2018-07-16T10:39:48.103Z,1009.08
2018-07-16T10:40:48.143Z,1009.14
2018-07-16T10:41:48.190Z,1009.08
2018-07-16T10:42:48.231Z,1009.08
2018-07-16T10:43:48.270Z,1009.13
2018-07-16T10:44:48.321Z,1009.08
2018-07-16T10:45:48.358Z,1009.02
2018-07-16T10:46:48.410Z,1009.04
2018-07-16T10:47:48.452Z,1008.99
2018-07-16T10:48:48.490Z,1009.01
2018-07-16T10:50:48.577Z,1009.01
2018-07-16T10:51:48.641Z,1008.94
2018-07-16T10:52:48.665Z,1008.95
2018-07-16T10:53:48.701Z,1008.93
2018-07-16T10:54:48.760Z,1008.90
2018-07-16T10:55:48.795Z,1008.87
2018-07-16T10:56:48.845Z,1008.93
2018-07-16T10:57:48.879Z,1008.86
2018-07-16T10:58:48.966Z,1008.83
2018-07-16T10:59:48.971Z,1008.85
2018-07-16T11:00:49.013Z,1008.90
2018-07-16T11:01:49.064Z,1008.91
2018-07-16T11:02:49.097Z,1008.91
2018-07-16T11:03:49.148Z,1008.93
2018-07-16T11:04:49.190Z,1008.86
2018-07-16T11:05:49.229Z,1008.87
2018-07-16T11:06:49.300Z,1008.82
2018-07-16T11:07:49.320Z,1008.78
2018-07-16T11:08:49.367Z,1008.77
2018-07-16T11:09:49.407Z,1008.78
2018-07-16T11:10:49.462Z,1008.75
2018-07-16T11:11:49.499Z,1008.74
2018-07-16T11:12:49.546Z,1008.76
2018-07-16T11:13:49.585Z,1008.75
2018-07-16T11:14:49.644Z,1008.73
2018-07-16T11:15:49.672Z,1008.71
2018-07-16T11:16:49.715Z,1008.70
2018-07-16T11:17:49.766Z,1008.71
2018-07-16T11:18:49.801Z,1008.77
2018-07-16T11:19:49.852Z,1008.74
2018-07-16T11:20:50.131Z,1008.67
2018-07-16T11:21:49.948Z,1008.73
2018-07-16T11:22:49.983Z,1008.68
2018-07-16T11:23:50.034Z,1008.53
2018-07-16T11:24:50.068Z,1008.56
2018-07-16T11:25:50.120Z,1008.63
2018-07-16T11:26:50.157Z,1008.70
2018-07-16T11:27:50.208Z,1008.67
2018-07-16T11:28:50.251Z,1008.64
2018-07-16T11:29:50.302Z,1008.65
2018-07-16T11:30:50.342Z,1008.65
2018-07-16T11:31:50.382Z,1008.65
2018-07-16T11:32:50.428Z,1008.61
2018-07-16T11:33:50.466Z,1008.60
2018-07-16T11:34:50.520Z,1008.63
2018-07-16T11:35:50.646Z,1008.61
2018-07-16T11:36:50.605Z,1008.64
2018-07-16T11:37:50.691Z,1008.55
2018-07-16T11:38:50.685Z,1008.58
2018-07-16T11:39:50.735Z,1008.55
2018-07-16T11:40:50.790Z,1008.52
2018-07-16T11:41:50.840Z,1008.53
2018-07-16T11:42:50.862Z,1008.54
2018-07-16T11:43:50.914Z,1008.53
2018-07-16T11:44:50.956Z,1008.53
2018-07-16T11:45:50.996Z,1008.55
2018-07-16T11:46:51.044Z,1008.54
2018-07-16T11:47:51.082Z,1008.41
2018-07-16T11:48:51.129Z,1008.40
2018-07-16T11:49:51.167Z,1008.46
2018-07-16T11:50:51.225Z,1008.50
2018-07-16T11:51:51.263Z,1008.50
2018-07-16T11:52:51.309Z,1008.53
2018-07-16T11:53:51.351Z,1008.48
2018-07-16T11:54:51.385Z,1008.47
2018-07-16T11:55:51.436Z,1008.50
2018-07-16T11:56:51.479Z,1008.47
2018-07-16T11:57:51.528Z,1008.44
2018-07-16T11:58:51.568Z,1008.43
2018-07-16T11:59:51.603Z,1008.43
2018-07-16T12:00:51.657Z,1008.39
2018-07-16T12:01:51.703Z,1008.40
2018-07-16T12:02:51.748Z,1008.36
2018-07-16T12:03:51.787Z,1008.38
2018-07-16T12:04:51.822Z,1008.37
2018-07-16T12:05:51.872Z,1008.30
2018-07-16T12:06:51.913Z,1008.34